Ocean Drive, South Carolina
Current Conditions -  °F | °C
As of 12:11 PM on Saturday 20 Dec 2014 (Local Time) from KCRE Reporting Station
Light Rain Light Rain  
Wind Chill: 43°   Ceiling: 700
Heat Index: 47°   Visibility: 4mi
Dew Point: 45°   Wind: 9mph
Humidity: 93%   Direction: 50°NE
Pressure: 30.22"   Gusts: NA
Location:  33.8371°N, 78.6471°W
Report Text: KCRE 201711Z 05008KT 4SM -RA BR BKN007 BKN055 OVC065 08/07 A3022 RMK AO1 P0000 T00830072
Loading
Personal Weather Stations






























Interactive Weather Map New forecast layout! Learn more

10-Day Weather Forecast

Advertisements
Track Severe Weather on mobile